aviador You're here:

UTAA Decoded Metar

ASHKHABAD in RUSSIA
Report Time2018-07-21 08:00:00
UTC Time2018-07-21 08:11:30
Flight Rules vfr VFR
Wind290° at 12 kt
W.Decomp.*RWY 29: 12.0 kt HW 0.8 kt LCW
RWY 30: 11.6 kt HW 2.9 kt LCW
W.Rank290° ranks 4
Current wind is above 290° avg. (9.0)
Visibility9999 m
Phenomena:N/A
Clouds:N/A
Expected CloudBase > 7,600 ft AGL from Temp-Dew spread
CeilingNone
Temp39°C (ISA +25)
Dew Point20°C (33% RH)
Heat Index42.5°C
AAT38.3°C
QNH1001 hPa
Density Alt4,252 ft
Elevation689 ft
Report Wrong Elevation
Raw Report
METAR UTAA 210800Z 29012KT 9999 NSC 39/20 Q1001 R88/70D NOSIG=

Extra information for UTAA:More info

Metar Taf Metar & Taf Last 4 Metars F.Rules Stats Wind Profile Meteogram Temp Stats Airport Information Weather charts Add Link Nearby VenuesMetar ALERT Operation Metar Decoded Social comments